Time;durP1;ratioP1;P1;durP2;ratioP2;P2;SDS_P1;SDS_P2;PMS_P1;PMS_P2;Temp;Humidity;BMP_temperature;BMP_pressure;BME280_temperature;BME280_humidity;BME280_pressure;Samples;Min_cycle;Max_cycle;Signal;HPM_P1;HPM_P2
2022/05/15 00:03:05;;;;;;;6.90;4.97;;;14.10;99.90;;;;;;5015055;28;20442;-73
2022/05/15 00:05:32;;;;;;;6.30;5.40;;;14.00;99.90;;;;;;5016636;28;20436;-73
2022/05/15 00:07:58;;;;;;;6.30;4.60;;;14.00;99.90;;;;;;5016009;28;21025;-75
2022/05/15 00:10:26;;;;;;;6.90;5.70;;;14.00;99.90;;;;;;5012507;28;20926;-73
2022/05/15 00:12:53;;;;;;;8.87;4.80;;;14.00;99.90;;;;;;5018374;28;20825;-74
2022/05/15 00:15:20;;;;;;;14.90;5.53;;;14.00;99.90;;;;;;5016864;28;20471;-75
2022/05/15 00:17:47;;;;;;;10.03;4.43;;;14.10;99.90;;;;;;5018449;28;20505;-74
2022/05/15 00:20:13;;;;;;;12.87;4.93;;;14.10;99.90;;;;;;5016389;28;20479;-73
2022/05/15 00:22:40;;;;;;;7.93;5.00;;;14.10;99.90;;;;;;5015405;28;20517;-74
2022/05/15 00:25:08;;;;;;;8.57;4.70;;;14.00;99.90;;;;;;5012308;28;21224;-73
2022/05/15 00:27:36;;;;;;;6.07;4.37;;;14.00;99.90;;;;;;5018908;28;20904;-73
2022/05/15 00:30:03;;;;;;;5.70;5.00;;;13.80;99.90;;;;;;5022303;28;20437;-75
2022/05/15 00:32:32;;;;;;;13.83;4.87;;;13.70;99.90;;;;;;5017039;28;20546;-74
2022/05/15 00:34:59;;;;;;;5.90;4.10;;;13.70;99.90;;;;;;5013854;28;20444;-75
2022/05/15 00:37:27;;;;;;;6.23;4.87;;;13.60;99.90;;;;;;5042866;22;20472;-75
2022/05/15 00:39:58;;;;;;;11.23;5.00;;;13.60;99.90;;;;;;5054114;28;21214;-74
2022/05/15 00:42:35;;;;;;;;;;;;;;;;;;;;;
2022/05/15 00:45:05;;;;;;;7.33;4.90;;;13.60;99.90;;;;;;5049690;28;20442;-76
2022/05/15 00:47:31;;;;;;;8.60;5.00;;;13.60;99.90;;;;;;5040827;28;20466;-75
2022/05/15 00:49:59;;;;;;;7.00;4.00;;;13.60;99.90;;;;;;5045761;28;20454;-76
2022/05/15 00:52:29;;;;;;;13.53;5.57;;;13.50;99.90;;;;;;5038792;28;22200;-77
2022/05/15 00:55:00;;;;;;;8.17;4.87;;;13.50;99.90;;;;;;5033188;28;20830;-76
2022/05/15 00:57:31;;;;;;;6.47;5.47;;;13.50;99.90;;;;;;5027701;28;21162;-76
2022/05/15 01:00:01;;;;;;;9.37;6.10;;;13.40;99.90;;;;;;5031736;28;20458;-77
2022/05/15 01:02:33;;;;;;;6.60;5.10;;;13.40;99.90;;;;;;5034528;28;21464;-77
2022/05/15 01:05:00;;;;;;;11.00;4.70;;;13.40;99.90;;;;;;5035072;28;20541;-77
2022/05/15 01:07:26;;;;;;;6.00;4.70;;;13.40;99.90;;;;;;5027699;28;20464;-75
2022/05/15 01:09:53;;;;;;;10.57;5.30;;;13.40;99.90;;;;;;5035029;28;20461;-76
2022/05/15 01:12:21;;;;;;;29.03;5.80;;;13.40;99.90;;;;;;5036047;28;20440;-76
2022/05/15 01:14:50;;;;;;;5.03;4.27;;;13.40;99.90;;;;;;5033452;28;20525;-77
2022/05/15 01:17:17;;;;;;;6.40;5.00;;;13.30;99.90;;;;;;5035734;28;20463;-76
2022/05/15 01:19:45;;;;;;;7.17;5.63;;;13.30;99.90;;;;;;5031299;28;20573;-76
2022/05/15 01:22:15;;;;;;;5.73;5.00;;;13.30;99.90;;;;;;5030669;28;20880;-74
2022/05/15 01:24:42;;;;;;;7.93;3.60;;;13.20;99.90;;;;;;5031338;28;20463;-77
2022/05/15 01:27:12;;;;;;;11.57;4.57;;;13.20;99.90;;;;;;5026049;28;20454;-75
2022/05/15 01:29:43;;;;;;;10.00;4.57;;;13.10;99.90;;;;;;5023495;28;20459;-75
2022/05/15 01:32:11;;;;;;;15.77;5.03;;;13.10;99.90;;;;;;5033455;28;20435;-77
2022/05/15 01:34:38;;;;;;;6.80;5.07;;;13.10;99.90;;;;;;5033037;28;20463;-75
2022/05/15 01:37:05;;;;;;;7.60;3.50;;;13.10;99.90;;;;;;5029496;28;20883;-76
2022/05/15 01:39:33;;;;;;;7.67;4.93;;;13.10;99.90;;;;;;5030644;28;20472;-75
2022/05/15 01:42:00;;;;;;;7.40;4.90;;;13.00;99.90;;;;;;5028213;28;20446;-77
2022/05/15 01:44:27;;;;;;;8.00;4.03;;;13.00;99.90;;;;;;5024537;28;20476;-75
2022/05/15 01:46:54;;;;;;;6.90;4.13;;;13.00;99.90;;;;;;5042752;28;20460;-76
2022/05/15 01:49:21;;;;;;;6.30;4.77;;;13.00;99.90;;;;;;5044036;28;20437;-75
2022/05/15 01:51:51;;;;;;;6.77;4.20;;;12.90;99.90;;;;;;5038146;28;20935;-76
2022/05/15 01:54:17;;;;;;;7.70;4.97;;;13.00;99.90;;;;;;5034665;28;20914;-76
2022/05/15 01:56:48;;;;;;;10.40;5.27;;;13.00;99.90;;;;;;5029754;28;20491;-75
2022/05/15 01:59:14;;;;;;;12.33;4.63;;;12.90;99.90;;;;;;5036415;28;20462;-77
2022/05/15 02:01:41;;;;;;;4.93;4.30;;;12.90;99.90;;;;;;5026877;28;20493;-77
2022/05/15 02:04:08;;;;;;;5.97;4.43;;;12.90;99.90;;;;;;5033770;28;20460;-75
2022/05/15 02:06:35;;;;;;;8.77;5.80;;;13.00;99.90;;;;;;5025477;28;20477;-77
2022/05/15 02:09:03;;;;;;;5.67;4.97;;;13.00;99.90;;;;;;5029106;28;20441;-76
2022/05/15 02:11:30;;;;;;;7.10;4.30;;;12.90;99.90;;;;;;5032060;28;20942;-77
2022/05/15 02:13:58;;;;;;;10.17;5.10;;;12.80;99.90;;;;;;5034985;28;21219;-74
2022/05/15 02:16:25;;;;;;;5.53;4.00;;;12.70;99.90;;;;;;5027026;28;20475;-75
2022/05/15 02:18:51;;;;;;;5.70;4.10;;;12.70;99.90;;;;;;5030541;28;20928;-77
2022/05/15 02:21:18;;;;;;;9.00;5.13;;;12.60;99.90;;;;;;5031959;28;20468;-76
2022/05/15 02:23:45;;;;;;;10.17;5.20;;;12.60;99.90;;;;;;5030910;28;20442;-77
2022/05/15 02:26:12;;;;;;;18.00;5.57;;;12.50;99.90;;;;;;5031704;28;20527;-77
2022/05/15 02:28:39;;;;;;;7.77;5.07;;;12.50;99.90;;;;;;5035391;28;20854;-76
2022/05/15 02:31:07;;;;;;;5.63;5.13;;;12.50;99.90;;;;;;5027462;28;20955;-76
2022/05/15 02:33:35;;;;;;;5.27;4.60;;;12.50;99.90;;;;;;5027354;28;20475;-77
2022/05/15 02:36:02;;;;;;;14.20;5.47;;;12.40;99.90;;;;;;5024739;28;20463;-77
2022/05/15 02:38:28;;;;;;;6.70;5.30;;;12.40;99.90;;;;;;5031207;28;20692;-77
2022/05/15 02:40:55;;;;;;;10.70;4.87;;;12.30;99.90;;;;;;5034742;28;20824;-76
2022/05/15 02:43:22;;;;;;;8.77;4.83;;;12.40;99.90;;;;;;5032721;28;20636;-77
2022/05/15 02:45:48;;;;;;;8.67;5.50;;;12.40;99.90;;;;;;5029249;28;20445;-77
2022/05/15 02:51:07;;;;;;;12.73;5.60;;;12.40;99.90;;;;;;5027014;28;21095;-76
2022/05/15 02:53:35;;;;;;;8.27;5.10;;;12.40;99.90;;;;;;5032270;28;20437;-76
2022/05/15 02:56:04;;;;;;;6.70;4.47;;;12.40;99.90;;;;;;5026810;28;21570;-76
2022/05/15 02:58:30;;;;;;;9.63;4.50;;;12.40;99.90;;;;;;5029909;28;20832;-77
2022/05/15 03:00:57;;;;;;;7.17;5.43;;;12.40;99.90;;;;;;5024674;28;20591;-76
2022/05/15 03:03:26;;;;;;;12.30;5.73;;;12.40;99.90;;;;;;5033070;28;20848;-76
2022/05/15 03:05:53;;;;;;;4.80;4.13;;;12.40;99.90;;;;;;5031153;28;21283;-75
2022/05/15 03:08:20;;;;;;;7.27;4.30;;;12.30;99.90;;;;;;5029977;28;20452;-75
2022/05/15 03:10:47;;;;;;;10.43;5.70;;;12.30;99.90;;;;;;5027346;28;20434;-76
2022/05/15 03:13:14;;;;;;;12.27;5.50;;;12.30;99.90;;;;;;5035924;28;20433;-75
2022/05/15 03:15:43;;;;;;;7.37;4.50;;;12.30;99.90;;;;;;5026862;28;20437;-76
2022/05/15 03:18:10;;;;;;;8.60;4.50;;;12.30;99.90;;;;;;5025315;28;20512;-76
2022/05/15 03:20:38;;;;;;;9.63;4.40;;;12.20;99.90;;;;;;5032179;28;20488;-75
2022/05/15 03:23:08;;;;;;;5.93;4.00;;;12.20;99.90;;;;;;5023592;28;20467;-76
2022/05/15 03:25:35;;;;;;;9.47;4.43;;;12.20;99.90;;;;;;5029947;28;20442;-74
2022/05/15 03:28:04;;;;;;;13.70;4.50;;;12.10;99.90;;;;;;5035245;28;20451;-76
2022/05/15 03:30:33;;;;;;;15.40;4.63;;;12.20;99.90;;;;;;5036217;28;20445;-75
2022/05/15 03:32:59;;;;;;;13.63;6.80;;;12.20;99.90;;;;;;5032636;28;20959;-76
2022/05/15 03:35:26;;;;;;;7.00;4.20;;;12.20;99.90;;;;;;5028127;28;20494;-74
2022/05/15 03:37:54;;;;;;;5.73;4.20;;;12.20;99.90;;;;;;5032866;28;21144;-76
2022/05/15 03:40:20;;;;;;;5.93;4.30;;;12.20;99.90;;;;;;5037038;28;20464;-76
2022/05/15 03:42:47;;;;;;;7.47;4.00;;;12.10;99.90;;;;;;5034706;28;20759;-76
2022/05/15 03:45:14;;;;;;;7.73;4.33;;;12.10;99.90;;;;;;5030583;28;20435;-76
2022/05/15 03:47:46;;;;;;;6.13;4.60;;;12.10;99.90;;;;;;5032694;28;20470;-76
2022/05/15 03:50:13;;;;;;;6.30;3.67;;;12.00;99.90;;;;;;5035916;28;20482;-78
2022/05/15 03:52:40;;;;;;;9.80;5.10;;;12.00;99.90;;;;;;5032491;28;20473;-77
2022/05/15 03:55:09;;;;;;;7.77;3.43;;;12.00;99.90;;;;;;5026357;28;20644;-76
2022/05/15 03:57:36;;;;;;;4.67;3.70;;;12.00;99.90;;;;;;5037578;28;20457;-77
2022/05/15 04:00:05;;;;;;;10.73;4.40;;;12.10;99.90;;;;;;5030127;28;20472;-75
2022/05/15 04:02:33;;;;;;;8.20;3.40;;;12.10;99.90;;;;;;5044708;28;20452;-76
2022/05/15 04:04:59;;;;;;;5.87;5.33;;;12.20;99.90;;;;;;5044071;28;20453;-75
2022/05/15 04:07:29;;;;;;;12.07;5.23;;;12.10;99.90;;;;;;5040954;28;20501;-75
2022/05/15 04:09:56;;;;;;;5.03;4.37;;;12.20;99.90;;;;;;5037827;28;20442;-75
2022/05/15 04:12:24;;;;;;;9.33;4.07;;;12.20;99.90;;;;;;5033416;28;20426;-74
2022/05/15 04:14:51;;;;;;;7.40;5.10;;;12.20;99.90;;;;;;5028937;28;20458;-75
2022/05/15 04:17:17;;;;;;;8.80;3.90;;;12.20;99.90;;;;;;5031240;28;20974;-75
2022/05/15 04:19:44;;;;;;;8.80;5.30;;;12.20;99.90;;;;;;5023825;28;20433;-76
2022/05/15 04:22:11;;;;;;;12.73;7.17;;;12.20;99.90;;;;;;5033527;28;20493;-77
2022/05/15 04:24:37;;;;;;;7.20;4.30;;;12.20;99.90;;;;;;5032879;28;20534;-76
2022/05/15 04:27:05;;;;;;;11.10;6.17;;;12.30;99.90;;;;;;5030770;28;20541;-76
2022/05/15 04:29:33;;;;;;;13.03;5.43;;;12.30;99.90;;;;;;5037171;28;20526;-77
2022/05/15 04:32:00;;;;;;;9.60;6.73;;;12.40;99.90;;;;;;5028775;28;20866;-76
2022/05/15 04:34:28;;;;;;;6.83;4.90;;;12.50;99.90;;;;;;5032587;28;20540;-74
2022/05/15 04:36:56;;;;;;;8.20;6.10;;;12.60;99.90;;;;;;5037010;28;20463;-76
2022/05/15 04:39:23;;;;;;;8.07;5.37;;;12.60;99.90;;;;;;5035942;28;20521;-76
2022/05/15 04:41:50;;;;;;;6.33;4.40;;;12.70;99.90;;;;;;5032115;28;20491;-76
2022/05/15 04:44:16;;;;;;;7.13;4.60;;;12.70;99.90;;;;;;5036732;28;20784;-77
2022/05/15 04:46:44;;;;;;;9.60;5.67;;;12.80;99.90;;;;;;5034376;28;20748;-76
2022/05/15 04:49:11;;;;;;;8.50;5.00;;;13.10;99.90;;;;;;5032644;28;20851;-74
2022/05/15 04:51:38;;;;;;;19.17;4.87;;;13.30;99.90;;;;;;5029768;28;20437;-76
2022/05/15 04:54:05;;;;;;;12.50;4.00;;;13.50;99.90;;;;;;5025402;28;20988;-77
2022/05/15 04:56:31;;;;;;;10.90;5.10;;;13.80;99.90;;;;;;5024065;28;20470;-74
2022/05/15 04:58:58;;;;;;;5.60;4.60;;;14.00;99.90;;;;;;5036706;28;20471;-74
2022/05/15 05:01:25;;;;;;;10.00;5.53;;;14.20;99.90;;;;;;5030813;28;20458;-74
2022/05/15 05:03:54;;;;;;;7.40;5.10;;;14.30;99.90;;;;;;5021438;28;20458;-75
2022/05/15 05:06:21;;;;;;;11.30;6.83;;;14.20;99.90;;;;;;5025613;28;20619;-75
2022/05/15 05:08:48;;;;;;;12.67;4.70;;;14.40;99.90;;;;;;5026928;28;20988;-75
2022/05/15 05:11:15;;;;;;;12.03;5.00;;;14.70;99.90;;;;;;5026694;28;21038;-76
2022/05/15 05:13:42;;;;;;;9.10;6.13;;;15.00;99.90;;;;;;5034472;28;20467;-74
2022/05/15 05:16:09;;;;;;;6.77;6.03;;;15.30;99.90;;;;;;5032617;28;20460;-76
2022/05/15 05:18:35;;;;;;;12.67;5.20;;;15.60;99.90;;;;;;5026268;28;20895;-76
2022/05/15 05:21:04;;;;;;;8.20;5.40;;;15.90;99.90;;;;;;5028518;28;20496;-76
2022/05/15 05:23:31;;;;;;;9.80;6.43;;;16.00;99.90;;;;;;5026517;28;20465;-76
2022/05/15 05:25:58;;;;;;;10.77;6.00;;;15.90;99.90;;;;;;5028068;28;20538;-74
2022/05/15 05:28:25;;;;;;;7.50;4.93;;;16.10;99.90;;;;;;5032712;28;20902;-75
2022/05/15 05:30:53;;;;;;;7.20;5.30;;;16.20;99.90;;;;;;5031017;28;20527;-74
2022/05/15 05:33:21;;;;;;;10.57;5.57;;;16.50;99.90;;;;;;5020689;28;21206;-76
2022/05/15 05:35:48;;;;;;;13.73;6.80;;;16.50;99.90;;;;;;5030338;28;20459;-77
2022/05/15 05:38:16;;;;;;;8.60;6.07;;;16.40;99.90;;;;;;5033206;28;20494;-75
2022/05/15 05:40:43;;;;;;;8.30;6.10;;;16.30;99.90;;;;;;5025705;28;20975;-76
2022/05/15 05:43:10;;;;;;;8.83;5.40;;;16.00;99.90;;;;;;5029125;28;20458;-75
2022/05/15 05:45:37;;;;;;;11.40;6.83;;;16.30;99.90;;;;;;5032439;28;20470;-77
2022/05/15 05:48:05;;;;;;;8.27;5.50;;;16.60;99.90;;;;;;5026572;28;20527;-76
2022/05/15 05:50:32;;;;;;;7.63;5.30;;;16.80;99.90;;;;;;5028727;28;21016;-75
2022/05/15 05:52:59;;;;;;;7.10;5.20;;;16.90;99.90;;;;;;5030573;28;20460;-76
2022/05/15 05:55:27;;;;;;;12.60;4.57;;;17.30;99.90;;;;;;5038107;28;20526;-74
2022/05/15 05:57:54;;;;;;;9.43;5.63;;;17.20;99.90;;;;;;5024807;28;20484;-74
2022/05/15 06:00:23;;;;;;;9.10;7.00;;;17.60;99.90;;;;;;5025722;28;20516;-76
2022/05/15 06:02:50;;;;;;;7.80;5.20;;;17.80;99.90;;;;;;5034923;28;20489;-74
2022/05/15 06:05:16;;;;;;;7.77;5.27;;;18.00;99.90;;;;;;5037894;28;20486;-74
2022/05/15 06:07:43;;;;;;;5.63;4.73;;;17.90;99.90;;;;;;5027771;28;20466;-76
2022/05/15 06:10:14;;;;;;;5.57;5.07;;;17.60;99.90;;;;;;5034189;28;20929;-76
2022/05/15 06:12:42;;;;;;;7.97;5.10;;;17.70;99.90;;;;;;5033295;28;20457;-75
2022/05/15 06:15:10;;;;;;;6.67;5.20;;;17.60;99.90;;;;;;5021771;28;20498;-77
2022/05/15 06:17:37;;;;;;;8.67;4.90;;;17.80;99.90;;;;;;5018549;28;20487;-75
2022/05/15 06:20:07;;;;;;;9.70;4.80;;;17.60;99.90;;;;;;5025807;28;20886;-75
2022/05/15 06:22:34;;;;;;;10.53;5.13;;;18.10;99.90;;;;;;5033084;28;21097;-76
2022/05/15 06:25:01;;;;;;;8.83;5.07;;;18.80;99.90;;;;;;5034357;28;20473;-77
2022/05/15 06:27:28;;;;;;;7.80;4.90;;;19.30;99.90;;;;;;5038453;28;20926;-78
2022/05/15 06:29:58;;;;;;;8.53;5.43;;;19.80;99.90;;;;;;5036895;28;21009;-76
2022/05/15 06:32:25;;;;;;;8.03;5.30;;;19.70;99.90;;;;;;5034376;28;20467;-77
2022/05/15 06:34:51;;;;;;;9.67;6.03;;;20.10;99.90;;;;;;5038788;28;20464;-77
2022/05/15 06:37:18;;;;;;;12.27;6.03;;;20.30;99.90;;;;;;5049800;22;20514;-75
2022/05/15 06:39:45;;;;;;;5.93;4.87;;;21.00;99.90;;;;;;5034403;28;20454;-75
2022/05/15 06:42:11;;;;;;;7.83;4.67;;;21.70;99.90;;;;;;5035848;28;20482;-75
2022/05/15 06:44:38;;;;;;;7.50;6.10;;;21.20;99.90;;;;;;5037323;28;20463;-75
2022/05/15 06:47:08;;;;;;;12.70;6.07;;;21.20;99.90;;;;;;5027525;28;20959;-75
2022/05/15 06:49:35;;;;;;;10.00;5.20;;;21.50;99.90;;;;;;5021459;28;21468;-75
2022/05/15 06:52:01;;;;;;;10.97;5.67;;;21.80;99.90;;;;;;5038835;28;20821;-75
2022/05/15 06:54:28;;;;;;;11.07;5.30;;;22.10;99.90;;;;;;5039506;28;21037;-75
2022/05/15 06:59:39;;;;;;;11.33;6.53;;;22.40;99.90;;;;;;5039201;28;21080;-75
2022/05/15 07:02:10;;;;;;;10.57;5.87;;;22.40;99.90;;;;;;5036976;28;20555;-75
2022/05/15 07:04:36;;;;;;;6.90;5.63;;;22.60;99.90;;;;;;5046336;28;20459;-75
2022/05/15 07:07:04;;;;;;;11.70;5.10;;;22.70;99.90;;;;;;5045985;28;20836;-75
2022/05/15 07:09:31;;;;;;;9.90;5.20;;;23.50;99.90;;;;;;5039065;28;20903;-75
2022/05/15 07:11:58;;;;;;;12.33;5.50;;;23.60;99.90;;;;;;5037236;28;20450;-75
2022/05/15 07:14:31;;;;;;;9.27;4.93;;;24.10;99.90;;;;;;5042208;28;20467;-75
2022/05/15 07:16:58;;;;;;;7.87;4.90;;;24.10;99.90;;;;;;5044146;28;20541;-75
2022/05/15 07:19:27;;;;;;;9.47;5.30;;;24.50;99.90;;;;;;5040954;28;20938;-75
2022/05/15 07:21:56;;;;;;;7.03;4.90;;;23.90;99.90;;;;;;5043512;28;20490;-75
2022/05/15 07:24:23;;;;;;;13.00;4.53;;;24.30;99.90;;;;;;5041405;28;20516;-75
2022/05/15 07:26:53;;;;;;;5.30;4.60;;;23.90;99.90;;;;;;5040732;28;20545;-75
2022/05/15 07:29:24;;;;;;;12.40;5.87;;;24.00;99.90;;;;;;5036743;28;20459;-75
2022/05/15 07:31:54;;;;;;;5.87;5.27;;;24.70;99.90;;;;;;5045328;28;20934;-75
2022/05/15 07:34:21;;;;;;;14.57;6.30;;;24.50;99.90;;;;;;5045247;28;20457;-75
2022/05/15 07:36:52;;;;;;;10.80;5.93;;;25.00;99.90;;;;;;5034889;28;21422;-75
2022/05/15 07:39:20;;;;;;;6.07;5.20;;;25.80;99.90;;;;;;5036479;28;20913;-76
2022/05/15 07:41:57;;;;;;;11.10;7.23;;;25.80;99.90;;;;;;5039905;28;20503;-75
2022/05/15 07:44:27;;;;;;;15.30;6.00;;;26.60;99.90;;;;;;5044866;28;20478;-76
2022/05/15 07:46:54;;;;;;;8.10;7.30;;;27.10;98.90;;;;;;5033266;28;20459;-76
2022/05/15 07:49:23;;;;;;;8.97;5.83;;;26.90;98.40;;;;;;5047576;28;20473;-76
2022/05/15 07:51:51;;;;;;;8.10;6.27;;;26.50;98.70;;;;;;5037964;28;20520;-76
2022/05/15 07:54:28;;;;;;;8.80;5.60;;;27.40;96.50;;;;;;5041795;28;20459;-77
2022/05/15 07:57:02;;;;;;;16.80;7.30;;;27.50;96.50;;;;;;5039146;28;20459;-76
2022/05/15 07:59:29;;;;;;;9.87;6.70;;;27.50;94.70;;;;;;5034001;28;20473;-75
2022/05/15 08:02:02;;;;;;;7.10;5.13;;;27.20;96.30;;;;;;5041868;28;20475;-75
2022/05/15 08:04:29;;;;;;;9.03;6.70;;;26.90;95.90;;;;;;5039925;28;20466;-76
2022/05/15 08:09:41;;;;;;;7.27;5.13;;;27.20;94.90;;;;;;5037877;28;20437;-76
2022/05/15 08:12:09;;;;;;;12.83;6.20;;;27.30;94.40;;;;;;5038618;28;20461;-77
2022/05/15 08:14:36;;;;;;;10.80;7.13;;;27.10;94.50;;;;;;5031076;28;20459;-76
2022/05/15 08:17:02;;;;;;;11.53;6.00;;;27.80;93.30;;;;;;5037661;28;20479;-77
2022/05/15 08:25:02;;;;;;;12.87;7.00;;;28.80;90.60;;;;;;5028530;28;20544;-75
2022/05/15 08:27:31;;;;;;;6.73;6.03;;;28.20;90.20;;;;;;5027698;28;20474;-75
2022/05/15 08:29:57;;;;;;;11.20;7.53;;;28.20;90.20;;;;;;5033029;28;20470;-75
2022/05/15 08:32:24;;;;;;;11.13;7.77;;;27.60;91.00;;;;;;5036710;28;20468;-75
2022/05/15 08:34:51;;;;;;;9.37;6.23;;;27.60;91.70;;;;;;5033924;28;20491;-75
2022/05/15 08:37:19;;;;;;;9.13;4.90;;;27.70;90.90;;;;;;5032089;28;20490;-75
2022/05/15 08:39:46;;;;;;;5.70;4.73;;;27.40;87.50;;;;;;5034718;28;20488;-75
2022/05/15 08:42:36;;;;;;;5.60;4.73;;;27.80;86.80;;;;;;5028466;28;21375;-75
2022/05/15 08:45:04;;;;;;;7.30;3.87;;;28.50;85.60;;;;;;5031459;28;20562;-75
2022/05/15 08:47:42;;;;;;;4.90;3.73;;;27.80;82.60;;;;;;5034232;28;21152;-75
2022/05/15 08:50:11;;;;;;;10.53;3.47;;;27.50;84.70;;;;;;5027567;28;20470;-75
2022/05/15 08:52:48;;;;;;;5.10;3.00;;;27.50;82.70;;;;;;5032315;28;20464;-75
2022/05/15 08:55:19;;;;;;;5.37;3.40;;;27.50;81.80;;;;;;5034770;28;20493;-75
2022/05/15 08:57:52;;;;;;;7.30;3.50;;;27.80;82.20;;;;;;5036009;28;20499;-74
2022/05/15 09:00:22;;;;;;;5.83;2.40;;;28.00;81.80;;;;;;5026544;28;20474;-74
2022/05/15 09:02:49;;;;;;;10.30;3.00;;;27.40;77.70;;;;;;5031999;28;20898;-74
2022/05/15 09:05:17;;;;;;;8.83;3.13;;;27.00;79.00;;;;;;5026719;28;20466;-75
2022/05/15 09:07:53;;;;;;;4.23;2.80;;;26.80;79.60;;;;;;5030842;28;20489;-75
2022/05/15 09:10:30;;;;;;;6.33;2.60;;;27.80;78.20;;;;;;5030310;28;20489;-74
2022/05/15 09:13:04;;;;;;;11.53;2.87;;;27.80;73.30;;;;;;5030710;28;20860;-75
2022/05/15 09:15:32;;;;;;;4.10;2.07;;;27.80;75.10;;;;;;5029613;28;20475;-74
2022/05/15 09:18:03;;;;;;;4.13;2.10;;;27.60;68.40;;;;;;5037478;28;20501;-74
2022/05/15 09:20:45;;;;;;;5.80;2.47;;;27.10;70.40;;;;;;5031588;28;20459;-74
2022/05/15 09:23:23;;;;;;;4.00;2.30;;;27.20;67.60;;;;;;5020104;28;20482;-74
2022/05/15 09:25:55;;;;;;;7.03;2.13;;;27.70;69.50;;;;;;5027493;28;20513;-74
2022/05/15 09:28:23;;;;;;;4.40;2.40;;;27.80;67.30;;;;;;5022901;28;20493;-73
2022/05/15 09:30:51;;;;;;;6.70;2.07;;;26.80;68.60;;;;;;5021478;28;20494;-73
2022/05/15 09:33:31;;;;;;;7.00;2.63;;;27.40;68.60;;;;;;5026648;28;20837;-73
2022/05/15 09:36:20;;;;;;;4.23;2.63;;;27.80;69.20;;;;;;5035421;28;20936;-72
2022/05/15 09:38:50;;;;;;;6.90;2.80;;;27.30;68.10;;;;;;5031871;28;20486;-73
2022/05/15 09:44:08;;;;;;;4.53;1.90;;;28.70;64.50;;;;;;5023740;28;20552;-73
2022/05/15 09:46:39;;;;;;;7.17;2.00;;;28.40;63.70;;;;;;5026129;28;21027;-75
2022/05/15 09:49:16;;;;;;;3.53;1.97;;;28.40;63.40;;;;;;5030932;28;20486;-74
2022/05/15 09:51:46;;;;;;;4.10;2.30;;;29.00;61.80;;;;;;5035552;28;22216;-72
2022/05/15 09:54:30;;;;;;;5.90;2.60;;;29.20;64.00;;;;;;5035900;28;20466;-74
2022/05/15 09:57:20;;;;;;;4.73;3.03;;;29.30;60.50;;;;;;5036455;28;20470;-75
2022/05/15 10:00:13;;;;;;;5.63;2.87;;;29.80;61.70;;;;;;5028474;28;20450;-73
2022/05/15 10:02:42;;;;;;;2.97;1.83;;;30.90;59.40;;;;;;5029777;28;20482;-73
2022/05/15 10:05:18;;;;;;;6.70;2.47;;;30.50;58.10;;;;;;5030017;28;20553;-73
2022/05/15 10:07:52;;;;;;;9.67;2.93;;;30.90;57.90;;;;;;5028228;28;20543;-73
2022/05/15 10:10:23;;;;;;;5.80;2.97;;;30.70;57.80;;;;;;5035670;28;20489;-73
2022/05/15 10:12:58;;;;;;;7.77;3.00;;;30.60;57.90;;;;;;5035590;28;20464;-73
2022/05/15 10:15:32;;;;;;;7.17;2.53;;;30.30;57.20;;;;;;5029969;28;20465;-74
2022/05/15 10:18:03;;;;;;;4.07;2.67;;;31.00;56.20;;;;;;5040078;28;21283;-74
2022/05/15 10:20:31;;;;;;;4.67;2.30;;;31.60;54.90;;;;;;5037438;28;20556;-74
2022/05/15 10:23:09;;;;;;;9.70;4.23;;;31.80;54.10;;;;;;5028609;28;20546;-72
2022/05/15 10:25:44;;;;;;;5.03;2.67;;;32.40;54.00;;;;;;5037614;28;20458;-73
2022/05/15 10:28:26;;;;;;;3.80;2.60;;;30.90;54.50;;;;;;5043142;22;20505;-73
2022/05/15 10:31:06;;;;;;;5.20;3.00;;;30.80;54.20;;;;;;5030010;28;20469;-74
2022/05/15 10:33:36;;;;;;;6.67;3.40;;;30.40;54.50;;;;;;5025886;28;20459;-75
2022/05/15 10:36:11;;;;;;;9.90;2.83;;;30.50;55.50;;;;;;5035739;28;20466;-74
2022/05/15 10:38:50;;;;;;;7.43;2.37;;;31.90;53.60;;;;;;5029199;28;20502;-71
2022/05/15 10:41:23;;;;;;;5.17;2.40;;;31.20;52.20;;;;;;5038880;28;20466;-73
2022/05/15 10:44:02;;;;;;;2.43;2.00;;;29.80;53.80;;;;;;5039124;28;20504;-73
2022/05/15 10:46:41;;;;;;;6.07;2.80;;;29.80;54.40;;;;;;5034712;28;20474;-73
2022/05/15 10:49:23;;;;;;;4.83;2.60;;;31.10;54.20;;;;;;5026904;28;20505;-74
2022/05/15 10:51:58;;;;;;;7.07;2.30;;;32.70;52.50;;;;;;5037114;28;20469;-74
2022/05/15 10:57:30;;;;;;;7.17;2.80;;;31.50;52.60;;;;;;5028570;28;20470;-74
2022/05/15 11:00:11;;;;;;;4.80;2.57;;;33.10;51.30;;;;;;5028252;28;21173;-74
2022/05/15 11:03:15;;;;;;;5.37;2.30;;;33.20;50.30;;;;;;5032644;28;21021;-74
2022/05/15 11:06:04;;;;;;;3.93;2.33;;;33.10;49.50;;;;;;5033535;28;20459;-73
2022/05/15 11:08:41;;;;;;;6.43;2.67;;;33.20;50.20;;;;;;5036899;28;20629;-74
2022/05/15 11:11:16;;;;;;;7.03;2.23;;;32.10;51.30;;;;;;5034052;28;20465;-73
2022/05/15 11:13:52;;;;;;;4.90;2.43;;;32.70;50.90;;;;;;5012438;28;20525;-74
2022/05/15 11:16:32;;;;;;;4.10;2.17;;;32.80;49.90;;;;;;5031689;28;20557;-74
2022/05/15 11:19:26;;;;;;;4.50;2.70;;;33.60;49.20;;;;;;5028063;28;20597;-73
2022/05/15 11:21:59;;;;;;;7.30;3.10;;;32.90;49.00;;;;;;5023167;28;20923;-75
2022/05/15 11:24:41;;;;;;;8.37;3.20;;;33.50;47.80;;;;;;5027868;28;20482;-74
2022/05/15 11:27:18;;;;;;;3.63;2.33;;;33.70;48.50;;;;;;5028290;28;21107;-74
2022/05/15 11:32:43;;;;;;;7.47;2.80;;;33.80;49.30;;;;;;5030978;28;20485;-73
2022/05/15 11:35:33;;;;;;;5.03;2.77;;;33.80;49.10;;;;;;5034792;28;20456;-75
2022/05/15 11:38:26;;;;;;;6.43;2.30;;;32.70;48.90;;;;;;5036949;28;20475;-74
2022/05/15 11:40:54;;;;;;;10.60;2.60;;;33.80;47.10;;;;;;5027451;28;20474;-74
2022/05/15 11:43:52;;;;;;;7.63;3.53;;;34.20;46.10;;;;;;5030399;28;20517;-74
2022/05/15 11:46:20;;;;;;;3.73;2.27;;;34.10;46.40;;;;;;5039075;28;20778;-74
2022/05/15 11:48:54;;;;;;;5.40;2.73;;;35.30;45.40;;;;;;5040339;28;20540;-74
2022/05/15 11:51:32;;;;;;;4.67;3.17;;;36.00;45.80;;;;;;5034054;28;20816;-73
2022/05/15 11:54:02;;;;;;;4.30;2.37;;;34.40;46.30;;;;;;5032496;28;20539;-72
2022/05/15 11:56:37;;;;;;;5.50;2.73;;;34.00;45.80;;;;;;5026455;28;20840;-73
2022/05/15 11:59:22;;;;;;;2.40;1.70;;;33.70;46.00;;;;;;5034764;28;20483;-74
2022/05/15 12:01:52;;;;;;;5.90;2.93;;;34.60;42.70;;;;;;5021009;28;20479;-73
2022/05/15 12:05:00;;;;;;;6.77;3.07;;;34.00;43.50;;;;;;5043510;28;20533;-74
2022/05/15 12:07:53;;;;;;;2.90;2.70;;;34.50;44.90;;;;;;5038957;28;21227;-73
2022/05/15 12:10:59;;;;;;;8.43;2.43;;;35.50;43.40;;;;;;5039476;28;20471;-73
2022/05/15 12:13:42;;;;;;;2.27;2.03;;;36.10;43.70;;;;;;5031155;28;20643;-73
2022/05/15 12:16:25;;;;;;;4.57;2.37;;;35.40;42.40;;;;;;5038217;28;20462;-72
2022/05/15 12:19:03;;;;;;;3.80;2.70;;;33.40;44.70;;;;;;5036831;28;20490;-73
2022/05/15 12:21:36;;;;;;;2.10;1.90;;;33.50;43.50;;;;;;5043078;28;20462;-73
2022/05/15 12:27:00;;;;;;;2.13;1.70;;;35.10;40.90;;;;;;5033082;28;20482;-72
2022/05/15 12:29:38;;;;;;;3.50;2.50;;;34.50;41.50;;;;;;5030432;28;20535;-73
2022/05/15 12:32:10;;;;;;;5.40;2.10;;;34.20;41.20;;;;;;5034052;28;20547;-73
2022/05/15 12:34:46;;;;;;;5.47;2.67;;;34.70;41.90;;;;;;5034570;28;20466;-73
2022/05/15 12:39:56;;;;;;;7.00;2.93;;;34.90;43.50;;;;;;4975849;28;20485;-78
2022/05/15 12:42:32;;;;;;;4.67;2.20;;;35.10;42.20;;;;;;4979109;28;20571;-79
2022/05/15 12:45:10;;;;;;;11.07;3.50;;;35.20;43.00;;;;;;4988785;28;20603;-79
2022/05/15 12:47:37;;;;;;;6.10;2.57;;;35.10;42.40;;;;;;4982144;28;20529;-80
2022/05/15 12:50:19;;;;;;;7.17;2.53;;;35.10;42.40;;;;;;4978441;28;20476;-79
2022/05/15 12:53:09;;;;;;;5.00;2.40;;;35.20;40.50;;;;;;4979733;28;20503;-80
2022/05/15 12:55:52;;;;;;;4.27;2.10;;;34.10;40.50;;;;;;4978313;28;21434;-79
2022/05/15 12:58:30;;;;;;;2.20;2.00;;;33.00;38.60;;;;;;4983573;28;20477;-79
2022/05/15 13:00:56;;;;;;;4.23;2.10;;;32.80;38.40;;;;;;4976502;28;20560;-78
2022/05/15 13:03:23;;;;;;;7.40;2.00;;;33.40;37.30;;;;;;4975732;28;20843;-77
2022/05/15 13:05:55;;;;;;;4.50;1.87;;;34.20;35.60;;;;;;4975033;28;20465;-78
2022/05/15 13:08:22;;;;;;;4.13;2.10;;;35.10;35.50;;;;;;4969749;28;20555;-78
2022/05/15 13:10:54;;;;;;;3.73;1.73;;;36.10;35.40;;;;;;4978656;28;20827;-78
2022/05/15 13:13:24;;;;;;;4.30;2.13;;;36.00;36.30;;;;;;4976607;28;20453;-78
2022/05/15 13:15:54;;;;;;;2.13;1.57;;;35.40;37.10;;;;;;4979366;28;20489;-78
2022/05/15 13:18:23;;;;;;;2.40;2.00;;;35.70;36.60;;;;;;4979924;28;20484;-78
2022/05/15 13:20:56;;;;;;;5.20;2.60;;;34.30;38.40;;;;;;4975233;28;20635;-77
2022/05/15 13:23:27;;;;;;;3.23;2.20;;;35.00;38.60;;;;;;4976292;28;20834;-77
2022/05/15 13:25:56;;;;;;;2.77;1.97;;;35.50;38.50;;;;;;4974718;28;20474;-77
2022/05/15 13:28:23;;;;;;;3.27;1.90;;;35.60;38.00;;;;;;4974878;28;20501;-77
2022/05/15 13:30:50;;;;;;;2.80;2.13;;;35.10;39.00;;;;;;4970770;28;20892;-77
2022/05/15 13:33:20;;;;;;;2.90;1.90;;;35.20;37.90;;;;;;4973464;28;21043;-77